createdAt,value
2022-08-26T00:01:15.431Z,11.05
2022-08-26T00:03:41.895Z,9.77
2022-08-26T00:06:09.012Z,9.95
2022-08-26T00:08:38.922Z,9.68
2022-08-26T00:11:08.240Z,10.93
2022-08-26T00:13:36.034Z,10.07
2022-08-26T00:16:02.630Z,10.07
2022-08-26T00:18:29.101Z,10.00
2022-08-26T00:20:59.863Z,10.20
2022-08-26T00:23:32.905Z,10.38
2022-08-26T00:25:59.323Z,10.70
2022-08-26T00:28:27.974Z,10.27
2022-08-26T00:30:55.108Z,11.13
2022-08-26T00:33:22.101Z,10.23
2022-08-26T00:35:48.479Z,9.75
2022-08-26T00:38:15.619Z,9.57
2022-08-26T00:40:46.746Z,10.65
2022-08-26T00:43:14.108Z,9.80
2022-08-26T00:45:46.855Z,10.57
2022-08-26T00:48:13.857Z,10.30
2022-08-26T00:50:42.260Z,9.25
2022-08-26T00:53:21.495Z,10.48
2022-08-26T00:56:02.753Z,8.95
2022-08-26T00:58:31.247Z,10.50
2022-08-26T01:00:57.698Z,9.25
2022-08-26T01:03:25.852Z,10.43
2022-08-26T01:05:55.242Z,9.77
2022-08-26T01:08:23.036Z,9.77
2022-08-26T01:10:51.264Z,9.15
2022-08-26T01:13:21.535Z,10.23
2022-08-26T01:15:49.397Z,9.38
2022-08-26T01:18:16.936Z,9.52
2022-08-26T01:21:02.092Z,9.43
2022-08-26T01:23:31.747Z,9.23
2022-08-26T01:26:00.668Z,9.68
2022-08-26T01:28:29.017Z,9.57
2022-08-26T01:30:57.306Z,9.35
2022-08-26T01:33:28.472Z,9.25
2022-08-26T01:35:55.086Z,8.38
2022-08-26T01:38:23.653Z,8.35
2022-08-26T01:40:50.214Z,9.07
2022-08-26T01:43:18.664Z,8.70
2022-08-26T01:45:45.934Z,8.30
2022-08-26T01:48:16.875Z,9.50
2022-08-26T01:50:44.961Z,9.48
2022-08-26T01:53:12.631Z,9.88
2022-08-26T01:55:41.093Z,10.57
2022-08-26T01:58:09.727Z,10.45
2022-08-26T02:00:36.404Z,9.18
2022-08-26T02:03:21.568Z,10.38
2022-08-26T02:05:51.268Z,9.93
2022-08-26T02:08:23.003Z,9.88
2022-08-26T02:10:51.414Z,10.02
2022-08-26T02:13:21.644Z,9.88
2022-08-26T02:15:49.158Z,9.90
2022-08-26T02:18:16.057Z,10.80
2022-08-26T02:20:42.779Z,9.77
2022-08-26T02:23:09.494Z,9.60
2022-08-26T02:25:51.814Z,10.18
2022-08-26T02:28:19.750Z,9.70
2022-08-26T02:30:47.156Z,10.38
2022-08-26T02:33:13.633Z,9.77
2022-08-26T02:35:40.222Z,9.90
2022-08-26T02:38:10.235Z,10.25
2022-08-26T02:43:04.664Z,9.95
2022-08-26T02:45:35.247Z,10.90
2022-08-26T02:48:07.156Z,10.10
2022-08-26T02:50:34.981Z,11.18
2022-08-26T02:53:01.708Z,10.32
2022-08-26T02:55:28.932Z,10.38
2022-08-26T02:57:55.841Z,10.02
2022-08-26T03:00:22.350Z,10.38
2022-08-26T03:02:50.353Z,11.18
2022-08-26T03:05:17.915Z,11.15
2022-08-26T03:07:44.279Z,10.38
2022-08-26T03:10:13.139Z,10.40
2022-08-26T03:12:41.335Z,10.55
2022-08-26T03:15:15.857Z,10.93
2022-08-26T03:17:44.671Z,10.85
2022-08-26T03:20:11.185Z,10.75
2022-08-26T03:22:40.211Z,10.90
2022-08-26T03:25:08.973Z,11.25
2022-08-26T03:27:35.365Z,11.00
2022-08-26T03:30:20.597Z,10.73
2022-08-26T03:32:46.955Z,10.90
2022-08-26T03:35:13.359Z,10.50
2022-08-26T03:37:40.417Z,11.27
2022-08-26T03:40:09.928Z,11.43
2022-08-26T03:42:37.694Z,10.40
2022-08-26T03:45:05.716Z,10.95
2022-08-26T03:47:33.706Z,11.18
2022-08-26T03:50:00.956Z,10.48
2022-08-26T03:52:27.348Z,11.02
2022-08-26T03:54:53.700Z,10.73
2022-08-26T03:57:20.761Z,11.25
2022-08-26T03:59:48.740Z,11.75
2022-08-26T04:02:15.509Z,12.20
2022-08-26T04:04:42.144Z,11.50
2022-08-26T04:07:08.611Z,11.15
2022-08-26T04:09:35.341Z,10.68
2022-08-26T04:12:03.602Z,11.70
2022-08-26T04:14:31.157Z,11.07
2022-08-26T04:16:58.648Z,11.40
2022-08-26T04:19:25.569Z,11.80
2022-08-26T04:21:53.197Z,11.57
2022-08-26T04:24:21.089Z,11.15
2022-08-26T04:26:48.388Z,12.00
2022-08-26T04:29:17.669Z,11.38
2022-08-26T04:31:45.127Z,12.65
2022-08-26T04:34:11.607Z,12.05
2022-08-26T04:36:41.070Z,12.20
2022-08-26T04:39:09.142Z,11.30
2022-08-26T04:41:36.707Z,11.95
2022-08-26T04:44:03.587Z,12.15
2022-08-26T04:46:30.120Z,11.98
2022-08-26T04:48:56.567Z,12.63
2022-08-26T04:51:29.003Z,11.50
2022-08-26T04:53:57.163Z,12.32
2022-08-26T04:56:24.652Z,11.88
2022-08-26T04:58:51.120Z,11.85
2022-08-26T05:01:18.517Z,12.02
2022-08-26T05:03:45.001Z,12.50
2022-08-26T05:06:12.296Z,11.77
2022-08-26T05:08:41.998Z,12.95
2022-08-26T05:13:39.196Z,12.00
2022-08-26T05:16:06.862Z,10.68
2022-08-26T05:18:34.073Z,11.32
2022-08-26T05:21:02.859Z,11.07
2022-08-26T05:23:31.994Z,11.07
2022-08-26T05:26:00.339Z,11.30
2022-08-26T05:28:28.474Z,11.73
2022-08-26T05:30:55.537Z,10.90
2022-08-26T05:33:22.353Z,11.30
2022-08-26T05:35:49.023Z,11.30
2022-08-26T05:38:16.960Z,11.40
2022-08-26T05:40:44.778Z,12.27
2022-08-26T05:43:11.790Z,11.30
2022-08-26T05:45:43.524Z,11.20
2022-08-26T05:48:12.243Z,11.73
2022-08-26T05:50:43.110Z,11.10
2022-08-26T05:53:10.844Z,10.73
2022-08-26T05:55:44.874Z,11.00
2022-08-26T05:58:12.353Z,10.55
2022-08-26T06:00:39.735Z,11.05
2022-08-26T06:03:08.525Z,12.38
2022-08-26T06:05:39.422Z,11.02
2022-08-26T06:11:00.127Z,11.40
2022-08-26T06:13:27.440Z,10.73
2022-08-26T06:15:57.815Z,11.30
2022-08-26T06:18:27.910Z,10.80
2022-08-26T06:20:57.599Z,10.40
2022-08-26T06:23:43.552Z,10.27
2022-08-26T06:26:11.060Z,11.05
2022-08-26T06:28:37.686Z,9.63
2022-08-26T06:31:04.500Z,10.73
2022-08-26T06:33:31.247Z,11.00
2022-08-26T06:35:58.486Z,10.52
2022-08-26T06:38:25.474Z,10.15
2022-08-26T06:41:01.751Z,9.93
2022-08-26T06:43:29.787Z,8.23
2022-08-26T06:46:07.151Z,9.85
2022-08-26T06:48:33.832Z,9.98
2022-08-26T06:51:09.018Z,8.88
2022-08-26T06:53:36.883Z,9.15
2022-08-26T06:56:07.257Z,9.07
2022-08-26T06:58:37.604Z,9.25
2022-08-26T07:01:11.258Z,8.18
2022-08-26T07:03:39.732Z,8.80
2022-08-26T07:06:06.538Z,9.20
2022-08-26T07:08:33.748Z,8.10
2022-08-26T07:11:04.277Z,8.27
2022-08-26T07:15:58.087Z,8.82
2022-08-26T07:18:29.358Z,7.38
2022-08-26T07:20:55.716Z,8.27
2022-08-26T07:23:22.949Z,8.25
2022-08-26T07:25:49.532Z,8.20
2022-08-26T07:28:16.057Z,8.75
2022-08-26T07:30:42.564Z,7.00
2022-08-26T07:33:09.232Z,7.80
2022-08-26T07:35:37.630Z,7.50
2022-08-26T07:38:04.490Z,6.90
2022-08-26T07:40:31.399Z,6.93
2022-08-26T07:42:57.994Z,7.28
2022-08-26T07:45:27.613Z,7.63
2022-08-26T07:47:54.086Z,7.60
2022-08-26T07:50:22.317Z,6.93
2022-08-26T07:53:10.623Z,6.80
2022-08-26T07:55:37.521Z,6.57
2022-08-26T07:58:04.169Z,7.18
2022-08-26T08:00:32.759Z,7.03
2022-08-26T08:02:59.726Z,7.13
2022-08-26T08:05:27.270Z,6.53
2022-08-26T08:08:17.333Z,6.35
2022-08-26T08:10:48.818Z,5.70
2022-08-26T08:13:15.583Z,6.80
2022-08-26T08:15:42.369Z,6.15
2022-08-26T08:18:15.595Z,7.35
2022-08-26T08:20:44.817Z,6.13
2022-08-26T08:23:20.819Z,7.13
2022-08-26T08:25:49.332Z,7.75
2022-08-26T08:28:17.297Z,7.13
2022-08-26T08:30:44.098Z,7.15
2022-08-26T08:33:10.506Z,6.72
2022-08-26T08:35:37.099Z,7.00
2022-08-26T08:38:04.266Z,6.90
2022-08-26T08:40:31.342Z,6.35
2022-08-26T08:43:09.692Z,6.72
2022-08-26T08:45:42.347Z,7.65
2022-08-26T08:48:27.895Z,6.95
2022-08-26T08:50:57.178Z,7.13
2022-08-26T08:53:33.477Z,7.05
2022-08-26T08:56:23.593Z,6.65
2022-08-26T08:58:53.797Z,6.30
2022-08-26T09:01:42.086Z,7.28
2022-08-26T09:04:08.533Z,6.93
2022-08-26T09:06:35.122Z,7.28
2022-08-26T09:09:02.749Z,6.85
2022-08-26T09:11:30.482Z,6.93
2022-08-26T09:13:57.666Z,7.32
2022-08-26T09:16:53.342Z,7.90
2022-08-26T09:19:26.570Z,6.85
2022-08-26T09:21:58.296Z,6.45
2022-08-26T09:24:28.576Z,6.65
2022-08-26T09:26:57.798Z,6.72
2022-08-26T09:29:25.785Z,6.90
2022-08-26T09:31:53.475Z,7.00
2022-08-26T09:34:27.412Z,6.53
2022-08-26T09:36:58.474Z,6.63
2022-08-26T09:39:26.594Z,5.82
2022-08-26T09:42:05.450Z,7.10
2022-08-26T09:44:32.357Z,5.95
2022-08-26T09:47:01.191Z,6.13
2022-08-26T09:49:35.523Z,5.90
2022-08-26T09:52:04.417Z,6.03
2022-08-26T09:54:33.198Z,6.35
2022-08-26T10:00:34.031Z,6.55
2022-08-26T10:03:01.818Z,6.38
2022-08-26T10:05:50.952Z,6.30
2022-08-26T10:08:23.388Z,6.85
2022-08-26T10:10:53.062Z,6.53
2022-08-26T10:13:23.771Z,6.85
2022-08-26T10:18:24.734Z,6.28
2022-08-26T10:21:04.030Z,6.07
2022-08-26T10:23:37.032Z,6.55
2022-08-26T10:26:13.125Z,6.75
2022-08-26T10:29:01.457Z,6.75
2022-08-26T10:31:40.345Z,6.53
2022-08-26T10:34:08.235Z,7.53
2022-08-26T10:37:10.533Z,6.68
2022-08-26T10:39:57.262Z,7.20
2022-08-26T10:42:37.522Z,6.00
2022-08-26T10:45:15.383Z,6.65
2022-08-26T10:47:47.444Z,7.07
2022-08-26T10:50:14.774Z,6.38
2022-08-26T10:52:51.973Z,6.88
2022-08-26T10:55:34.694Z,6.32
2022-08-26T10:58:26.536Z,6.13
2022-08-26T11:01:28.355Z,6.55
2022-08-26T11:04:11.962Z,6.05
2022-08-26T11:06:39.186Z,7.03
2022-08-26T11:09:09.053Z,6.82
2022-08-26T11:11:41.587Z,6.70
2022-08-26T11:14:10.865Z,7.40
2022-08-26T11:16:43.395Z,6.65
2022-08-26T11:19:11.235Z,6.85
2022-08-26T11:21:56.439Z,6.80
2022-08-26T11:24:38.216Z,6.80
2022-08-26T11:27:04.743Z,6.90
2022-08-26T11:29:50.198Z,8.10
2022-08-26T11:32:34.750Z,6.82
2022-08-26T11:35:04.848Z,6.03
2022-08-26T11:37:40.491Z,6.80
2022-08-26T11:40:09.263Z,8.00
2022-08-26T11:42:38.273Z,5.07
2022-08-26T11:45:14.392Z,4.00
2022-08-26T11:47:41.024Z,3.70
2022-08-26T11:50:09.432Z,5.50
2022-08-26T11:52:36.695Z,4.03
2022-08-26T11:55:12.142Z,3.53
2022-08-26T11:57:45.742Z,3.30
2022-08-26T12:00:22.184Z,4.38
2022-08-26T12:02:49.716Z,3.10
2022-08-26T12:05:20.705Z,3.92
2022-08-26T12:07:51.562Z,3.55
2022-08-26T12:10:29.824Z,3.65
2022-08-26T12:12:58.680Z,3.53
2022-08-26T12:15:26.420Z,3.70
2022-08-26T12:17:56.168Z,3.50
2022-08-26T12:20:31.303Z,3.70
2022-08-26T12:22:59.116Z,3.55
2022-08-26T12:25:26.262Z,3.20
2022-08-26T12:27:54.028Z,2.80
2022-08-26T12:30:22.503Z,2.67
2022-08-26T12:33:22.798Z,2.75
2022-08-26T12:35:52.871Z,3.20
2022-08-26T12:38:21.795Z,3.67
2022-08-26T12:40:50.183Z,3.17
2022-08-26T12:43:36.110Z,2.90
2022-08-26T12:46:04.567Z,3.58
2022-08-26T12:51:00.220Z,3.45
2022-08-26T12:53:31.337Z,4.30
2022-08-26T12:56:00.225Z,4.53
2022-08-26T12:58:29.942Z,4.10
2022-08-26T13:01:08.736Z,3.90
2022-08-26T13:03:35.301Z,4.00
2022-08-26T13:06:23.813Z,3.63
2022-08-26T13:08:54.074Z,4.40
2022-08-26T13:11:22.315Z,3.63
2022-08-26T13:13:51.716Z,4.25
2022-08-26T13:16:19.669Z,4.82
2022-08-26T13:18:51.138Z,4.30
2022-08-26T13:21:20.057Z,4.80
2022-08-26T13:23:46.769Z,4.30
2022-08-26T13:26:13.232Z,4.22
2022-08-26T13:28:39.661Z,4.30
2022-08-26T13:31:06.226Z,4.32
2022-08-26T13:33:32.983Z,5.13
2022-08-26T13:35:59.805Z,5.40
2022-08-26T13:38:33.222Z,6.50
2022-08-26T13:41:00.705Z,6.38
2022-08-26T13:43:28.057Z,6.68
2022-08-26T13:45:54.596Z,6.32
2022-08-26T13:48:23.366Z,7.25
2022-08-26T13:50:50.010Z,8.95
2022-08-26T13:53:16.900Z,8.18
2022-08-26T13:55:43.428Z,8.73
2022-08-26T13:58:10.383Z,8.63
2022-08-26T14:00:37.743Z,10.90
2022-08-26T14:03:04.794Z,8.82
2022-08-26T14:05:31.312Z,8.32
2022-08-26T14:07:57.796Z,8.93
2022-08-26T14:10:24.701Z,9.10
2022-08-26T14:12:51.584Z,9.20
2022-08-26T14:15:18.679Z,9.70
2022-08-26T14:17:48.918Z,12.23
2022-08-26T14:20:18.198Z,13.13
2022-08-26T14:23:03.655Z,13.13
2022-08-26T14:25:31.037Z,14.95
2022-08-26T14:27:57.475Z,14.55
2022-08-26T14:30:24.071Z,16.73
2022-08-26T14:32:52.377Z,22.23
2022-08-26T14:35:20.470Z,14.40
2022-08-26T14:37:46.899Z,12.45
2022-08-26T14:40:14.227Z,12.70
2022-08-26T14:42:41.486Z,18.83
2022-08-26T14:45:09.611Z,23.13
2022-08-26T14:47:36.004Z,13.02
2022-08-26T14:50:02.609Z,13.43
2022-08-26T14:52:29.680Z,14.30
2022-08-26T14:54:56.060Z,12.15
2022-08-26T14:57:22.501Z,11.32
2022-08-26T14:59:50.478Z,7.72
2022-08-26T15:02:32.742Z,8.90
2022-08-26T15:05:00.352Z,14.75
2022-08-26T15:07:27.078Z,10.60
2022-08-26T15:09:53.536Z,11.13
2022-08-26T15:12:19.980Z,9.52
2022-08-26T15:14:46.845Z,8.75
2022-08-26T15:17:13.197Z,7.07
2022-08-26T15:19:39.740Z,7.78
2022-08-26T15:22:06.152Z,7.47
2022-08-26T15:24:32.578Z,7.63
2022-08-26T15:26:59.022Z,8.90
2022-08-26T15:29:25.687Z,5.93
2022-08-26T15:31:52.469Z,8.75
2022-08-26T15:34:23.880Z,9.02
2022-08-26T15:36:50.564Z,7.90
2022-08-26T15:39:17.474Z,8.35
2022-08-26T15:41:44.361Z,8.65
2022-08-26T15:44:11.289Z,9.82
2022-08-26T15:46:38.668Z,10.90
2022-08-26T15:49:05.929Z,14.38
2022-08-26T15:51:33.793Z,9.35
2022-08-26T15:54:01.766Z,9.77
2022-08-26T15:56:29.521Z,14.00
2022-08-26T15:58:56.209Z,11.30
2022-08-26T16:01:27.434Z,10.30
2022-08-26T16:03:54.742Z,13.20
2022-08-26T16:06:25.762Z,12.07
2022-08-26T16:08:52.289Z,12.23
2022-08-26T16:11:19.802Z,15.27
2022-08-26T16:13:46.329Z,11.98
2022-08-26T16:16:12.697Z,11.75
2022-08-26T16:18:39.463Z,10.45
2022-08-26T16:21:13.439Z,10.55
2022-08-26T16:23:40.799Z,11.60
2022-08-26T16:28:50.434Z,14.10
2022-08-26T16:31:17.330Z,11.27
2022-08-26T16:33:43.851Z,11.68
2022-08-26T16:36:14.124Z,12.07
2022-08-26T16:38:53.633Z,13.00
2022-08-26T16:41:25.138Z,15.07
2022-08-26T16:43:54.688Z,15.60
2022-08-26T16:46:28.334Z,16.45
2022-08-26T16:48:56.834Z,16.58
2022-08-26T16:51:24.669Z,11.80
2022-08-26T16:53:54.009Z,13.60
2022-08-26T16:56:21.873Z,12.68
2022-08-26T16:58:53.091Z,11.43
2022-08-26T17:01:20.099Z,12.38
2022-08-26T17:04:01.609Z,11.40
2022-08-26T17:07:03.946Z,15.65
2022-08-26T17:09:31.440Z,14.73
2022-08-26T17:11:58.216Z,11.52
2022-08-26T17:14:25.100Z,12.70
2022-08-26T17:16:53.945Z,14.50
2022-08-26T17:19:21.338Z,15.75
2022-08-26T17:21:48.647Z,14.10
2022-08-26T17:24:15.471Z,13.52
2022-08-26T17:26:48.373Z,13.80
2022-08-26T17:29:20.532Z,11.82
2022-08-26T17:31:47.616Z,14.75
2022-08-26T17:34:14.204Z,16.80
2022-08-26T17:36:40.898Z,18.05
2022-08-26T17:39:07.462Z,17.40
2022-08-26T17:41:34.216Z,19.52
2022-08-26T17:44:00.614Z,17.58
2022-08-26T17:46:28.033Z,20.83
2022-08-26T17:48:54.742Z,21.83
2022-08-26T17:51:21.980Z,22.00
2022-08-26T17:53:49.017Z,25.58
2022-08-26T17:56:17.145Z,20.63
2022-08-26T17:58:48.189Z,22.85
2022-08-26T18:01:18.743Z,18.40
2022-08-26T18:03:45.433Z,23.25
2022-08-26T18:06:12.991Z,28.55
2022-08-26T18:08:40.938Z,19.05
2022-08-26T18:11:11.695Z,21.90
2022-08-26T18:13:39.338Z,18.88
2022-08-26T18:16:13.928Z,25.10
2022-08-26T18:18:40.627Z,22.23
2022-08-26T18:21:15.627Z,18.38
2022-08-26T18:23:42.755Z,19.40
2022-08-26T18:26:09.408Z,20.10
2022-08-26T18:28:39.457Z,28.88
2022-08-26T18:31:07.328Z,28.42
2022-08-26T18:33:34.276Z,25.60
2022-08-26T18:36:01.896Z,28.95
2022-08-26T18:38:28.587Z,18.98
2022-08-26T18:40:55.547Z,20.05
2022-08-26T18:43:23.086Z,21.73
2022-08-26T18:45:50.041Z,27.83
2022-08-26T18:48:16.809Z,25.02
2022-08-26T18:50:47.274Z,26.23
2022-08-26T18:53:14.048Z,29.52
2022-08-26T18:55:40.947Z,32.83
2022-08-26T18:58:07.643Z,29.95
2022-08-26T19:00:34.196Z,30.40
2022-08-26T19:03:00.866Z,29.35
2022-08-26T19:05:27.534Z,29.30
2022-08-26T19:07:54.576Z,29.38
2022-08-26T19:10:20.958Z,28.63
2022-08-26T19:12:47.387Z,30.77
2022-08-26T19:15:18.408Z,32.25
2022-08-26T19:17:44.808Z,30.67
2022-08-26T19:20:11.264Z,31.00
2022-08-26T19:22:37.686Z,26.23
2022-08-26T19:25:04.268Z,32.00
2022-08-26T19:27:31.048Z,27.80
2022-08-26T19:29:57.672Z,27.80
2022-08-26T19:32:27.343Z,31.27
2022-08-26T19:34:56.005Z,33.58
2022-08-26T19:37:22.459Z,33.22
2022-08-26T19:39:50.946Z,33.80
2022-08-26T19:42:17.469Z,30.73
2022-08-26T19:45:02.678Z,29.75
2022-08-26T19:47:29.205Z,30.02
2022-08-26T19:49:56.224Z,26.77
2022-08-26T19:52:23.482Z,26.42
2022-08-26T19:54:56.473Z,27.33
2022-08-26T19:57:22.917Z,26.80
2022-08-26T19:59:49.585Z,28.90
2022-08-26T20:02:16.713Z,25.80
2022-08-26T20:04:43.736Z,23.77
2022-08-26T20:07:14.064Z,28.30
2022-08-26T20:09:43.450Z,20.73
2022-08-26T20:12:09.876Z,19.52
2022-08-26T20:14:36.554Z,25.75
2022-08-26T20:17:03.453Z,25.55
2022-08-26T20:19:50.880Z,27.60
2022-08-26T20:22:17.790Z,23.48
2022-08-26T20:24:45.420Z,25.58
2022-08-26T20:27:11.897Z,27.30
2022-08-26T20:29:38.686Z,24.17
2022-08-26T20:32:06.167Z,22.80
2022-08-26T20:34:32.758Z,21.58
2022-08-26T20:36:59.435Z,25.55
2022-08-26T20:39:28.937Z,20.38
2022-08-26T20:41:58.563Z,26.13
2022-08-26T20:44:25.002Z,22.85
2022-08-26T20:46:51.465Z,26.33
2022-08-26T20:49:18.641Z,26.95
2022-08-26T20:51:47.982Z,24.35
2022-08-26T20:54:14.379Z,26.10
2022-08-26T20:56:40.766Z,22.83
2022-08-26T20:59:07.829Z,30.02
2022-08-26T21:01:35.549Z,20.17
2022-08-26T21:04:02.946Z,19.27
2022-08-26T21:06:29.731Z,18.95
2022-08-26T21:08:57.034Z,22.98
2022-08-26T21:11:24.540Z,25.20
2022-08-26T21:14:15.660Z,28.83
2022-08-26T21:16:38.258Z,22.80
2022-08-26T21:19:05.792Z,30.30
2022-08-26T21:21:32.684Z,22.75
2022-08-26T21:23:59.412Z,22.77
2022-08-26T21:26:26.184Z,23.25
2022-08-26T21:28:52.705Z,24.40
2022-08-26T21:31:20.553Z,24.80
2022-08-26T21:33:47.442Z,18.05
2022-08-26T21:36:13.987Z,26.20
2022-08-26T21:38:40.977Z,31.77
2022-08-26T21:41:08.872Z,25.17
2022-08-26T21:43:36.654Z,27.65
2022-08-26T21:46:11.383Z,22.90
2022-08-26T21:48:39.018Z,25.15
2022-08-26T21:51:06.123Z,21.80
2022-08-26T21:53:32.523Z,22.23
2022-08-26T21:55:58.913Z,21.88
2022-08-26T21:58:34.028Z,23.58
2022-08-26T22:01:00.576Z,24.10
2022-08-26T22:03:27.236Z,23.30
2022-08-26T22:05:53.622Z,21.20
2022-08-26T22:08:20.978Z,22.10
2022-08-26T22:10:51.867Z,21.23
2022-08-26T22:15:45.994Z,19.50
2022-08-26T22:18:12.520Z,17.88
2022-08-26T22:20:39.110Z,21.02
2022-08-26T22:23:05.561Z,30.08
2022-08-26T22:25:32.162Z,28.35
2022-08-26T22:27:58.889Z,25.88
2022-08-26T22:30:25.423Z,30.02
2022-08-26T22:32:51.869Z,31.02
2022-08-26T22:35:28.366Z,27.00
2022-08-26T22:37:57.174Z,27.05
2022-08-26T22:40:24.336Z,29.17
2022-08-26T22:42:57.881Z,24.33
2022-08-26T22:45:27.368Z,27.80
2022-08-26T22:47:53.904Z,18.13
2022-08-26T22:50:20.328Z,24.08
2022-08-26T22:52:46.759Z,25.90
2022-08-26T22:55:13.172Z,24.13
2022-08-26T22:57:39.539Z,20.88
2022-08-26T23:00:06.540Z,16.90
2022-08-26T23:02:32.981Z,16.88
2022-08-26T23:04:59.375Z,16.85
2022-08-26T23:07:25.761Z,16.48
2022-08-26T23:09:52.133Z,17.25
2022-08-26T23:12:18.514Z,17.67
2022-08-26T23:14:44.963Z,17.25
2022-08-26T23:17:11.811Z,20.40
2022-08-26T23:19:38.198Z,24.13
2022-08-26T23:22:04.612Z,21.40
2022-08-26T23:24:31.058Z,23.58
2022-08-26T23:26:57.507Z,21.73
2022-08-26T23:29:23.946Z,29.25
2022-08-26T23:31:50.570Z,34.85
2022-08-26T23:34:52.309Z,26.30
2022-08-26T23:37:19.699Z,38.75
2022-08-26T23:39:47.363Z,29.05
2022-08-26T23:42:13.757Z,27.52
2022-08-26T23:44:40.338Z,33.50
2022-08-26T23:47:06.817Z,27.15
2022-08-26T23:49:33.559Z,26.48
2022-08-26T23:52:18.682Z,29.92
2022-08-26T23:54:45.422Z,27.35
2022-08-26T23:57:11.827Z,31.95
2022-08-26T23:59:38.700Z,20.65
